createdAt,value
2017-12-21T00:00:28.420Z,17.60
2017-12-21T00:01:28.308Z,16.60
2017-12-21T00:03:21.576Z,15.80
2017-12-21T00:04:21.486Z,16.20
2017-12-21T00:06:14.737Z,17.70
2017-12-21T00:07:14.666Z,17.80
2017-12-21T00:09:07.943Z,17.20
2017-12-21T00:10:07.855Z,17.10
2017-12-21T00:12:01.227Z,16.70
2017-12-21T00:13:01.045Z,17.30
2017-12-21T00:14:54.402Z,17.30
2017-12-21T00:15:54.308Z,17.70
2017-12-21T00:17:47.586Z,17.80
2017-12-21T00:18:47.510Z,18.20
2017-12-21T00:20:40.749Z,18.70
2017-12-21T00:21:40.679Z,18.20
2017-12-21T00:23:33.957Z,18.40
2017-12-21T00:24:33.871Z,18.30
2017-12-21T00:26:27.129Z,17.90
2017-12-21T00:27:27.062Z,17.60
2017-12-21T00:29:20.447Z,17.10
2017-12-21T00:30:20.241Z,17.40
2017-12-21T00:32:13.500Z,17.60
2017-12-21T00:33:13.431Z,17.60
2017-12-21T00:35:06.716Z,17.20
2017-12-21T00:36:06.625Z,17.70
2017-12-21T00:37:59.892Z,17.60
2017-12-21T00:38:59.804Z,17.30
2017-12-21T00:40:53.068Z,18.40
2017-12-21T00:41:52.998Z,17.20
2017-12-21T00:43:46.270Z,17.30
2017-12-21T00:44:46.187Z,17.80
2017-12-21T00:46:39.448Z,17.80
2017-12-21T00:47:39.376Z,17.40
2017-12-21T00:49:32.655Z,16.80
2017-12-21T00:50:32.567Z,16.60
2017-12-21T00:52:25.837Z,17.90
2017-12-21T00:53:25.759Z,16.60
2017-12-21T00:55:19.036Z,18.00
2017-12-21T00:56:18.951Z,18.00
2017-12-21T00:58:12.225Z,17.70
2017-12-21T00:59:12.139Z,18.30
2017-12-21T01:01:05.400Z,16.50
2017-12-21T01:02:05.333Z,17.10
2017-12-21T01:03:58.632Z,18.10
2017-12-21T01:04:58.522Z,18.10
2017-12-21T01:06:51.780Z,18.60
2017-12-21T01:07:51.713Z,17.80
2017-12-21T01:09:44.987Z,19.00
2017-12-21T01:10:44.895Z,19.80
2017-12-21T01:12:38.162Z,19.00
2017-12-21T01:13:38.093Z,18.60
2017-12-21T01:15:31.368Z,19.20
2017-12-21T01:16:31.285Z,19.20
2017-12-21T01:18:24.562Z,18.00
2017-12-21T01:19:24.475Z,18.40
2017-12-21T01:21:17.737Z,19.30
2017-12-21T01:22:17.668Z,19.30
2017-12-21T01:24:10.937Z,19.70
2017-12-21T01:25:10.849Z,19.80
2017-12-21T01:27:04.105Z,18.40
2017-12-21T01:28:04.041Z,19.10
2017-12-21T01:29:57.310Z,18.80
2017-12-21T01:30:57.221Z,18.00
2017-12-21T01:32:50.486Z,19.20
2017-12-21T01:33:50.411Z,19.40
2017-12-21T01:35:43.690Z,19.60
2017-12-21T01:36:43.604Z,18.60
2017-12-21T01:38:36.876Z,19.20
2017-12-21T01:39:36.791Z,18.80
2017-12-21T01:41:30.047Z,17.40
2017-12-21T01:42:29.975Z,18.10
2017-12-21T01:44:23.257Z,17.80
2017-12-21T01:45:23.167Z,16.60
2017-12-21T01:47:16.417Z,16.90
2017-12-21T01:48:16.348Z,17.60
2017-12-21T01:50:09.616Z,17.90
2017-12-21T01:51:09.528Z,17.40
2017-12-21T01:53:02.805Z,17.90
2017-12-21T01:54:02.718Z,17.30
2017-12-21T01:55:55.998Z,16.50
2017-12-21T01:56:55.909Z,16.90
2017-12-21T01:58:49.187Z,15.20
2017-12-21T01:59:49.101Z,16.00
2017-12-21T02:01:42.380Z,14.60
2017-12-21T02:02:42.311Z,15.10
2017-12-21T02:04:35.591Z,17.30
2017-12-21T02:05:35.500Z,16.50
2017-12-21T02:07:28.870Z,15.50
2017-12-21T02:08:28.680Z,15.80
2017-12-21T02:10:22.066Z,16.30
2017-12-21T02:11:21.861Z,15.60
2017-12-21T02:13:15.157Z,15.60
2017-12-21T02:14:15.052Z,17.40
2017-12-21T02:16:08.379Z,16.10
2017-12-21T02:17:08.309Z,17.10
2017-12-21T02:19:01.586Z,17.80
2017-12-21T02:20:01.500Z,18.30
2017-12-21T02:21:54.867Z,16.90
2017-12-21T02:22:54.675Z,17.20
2017-12-21T02:24:47.959Z,16.70
2017-12-21T02:25:47.868Z,16.70
2017-12-21T02:27:41.237Z,16.80
2017-12-21T02:28:41.057Z,16.20
2017-12-21T02:30:34.403Z,17.40
2017-12-21T02:31:34.310Z,17.60
2017-12-21T02:33:27.633Z,17.40
2017-12-21T02:34:27.502Z,17.30
2017-12-21T02:36:20.760Z,17.30
2017-12-21T02:37:20.717Z,17.60
2017-12-21T02:39:13.963Z,18.20
2017-12-21T02:40:13.876Z,18.00
2017-12-21T02:42:07.134Z,17.40
2017-12-21T02:43:07.066Z,17.50
2017-12-21T02:45:00.396Z,18.20
2017-12-21T02:46:00.310Z,18.90
2017-12-21T02:47:53.682Z,18.70
2017-12-21T02:48:53.504Z,19.70
2017-12-21T02:50:46.888Z,20.00
2017-12-21T02:51:46.691Z,20.10
2017-12-21T02:53:40.114Z,20.50
2017-12-21T02:54:39.882Z,19.30
2017-12-21T02:56:33.141Z,18.90
2017-12-21T02:57:33.072Z,20.10
2017-12-21T02:59:26.397Z,20.70
2017-12-21T03:00:26.308Z,21.30
2017-12-21T03:02:19.572Z,21.40
2017-12-21T03:03:19.502Z,21.40
2017-12-21T03:05:12.784Z,21.50
2017-12-21T03:06:12.695Z,21.70
2017-12-21T03:08:05.953Z,21.20
2017-12-21T03:09:05.882Z,21.50
2017-12-21T03:10:59.163Z,20.80
2017-12-21T03:11:59.074Z,19.50
2017-12-21T03:13:52.399Z,20.00
2017-12-21T03:14:52.313Z,21.20
2017-12-21T03:16:45.568Z,20.10
2017-12-21T03:17:45.500Z,20.60
2017-12-21T03:19:38.783Z,19.60
2017-12-21T03:20:38.697Z,19.60
2017-12-21T03:22:32.563Z,19.30
2017-12-21T03:23:31.884Z,20.20
2017-12-21T03:25:25.166Z,19.60
2017-12-21T03:26:25.078Z,20.20
2017-12-21T03:28:18.378Z,20.30
2017-12-21T03:29:18.310Z,20.60
2017-12-21T03:31:11.585Z,19.50
2017-12-21T03:32:11.503Z,19.10
2017-12-21T03:34:04.779Z,19.50
2017-12-21T03:35:04.689Z,18.90
2017-12-21T03:36:57.943Z,19.80
2017-12-21T03:37:57.870Z,20.60
2017-12-21T03:39:51.252Z,19.50
2017-12-21T03:40:51.062Z,19.70
2017-12-21T03:42:44.379Z,19.00
2017-12-21T03:43:44.307Z,18.80
2017-12-21T03:45:37.590Z,19.00
2017-12-21T03:46:37.504Z,19.30
2017-12-21T03:48:30.763Z,19.70
2017-12-21T03:49:30.694Z,20.10
2017-12-21T03:51:23.969Z,19.20
2017-12-21T03:52:23.872Z,20.90
2017-12-21T03:54:17.259Z,20.60
2017-12-21T03:55:17.063Z,20.00
2017-12-21T03:57:10.377Z,21.30
2017-12-21T03:58:10.310Z,21.80
2017-12-21T04:00:03.580Z,22.20
2017-12-21T04:01:03.488Z,22.10
2017-12-21T04:02:56.753Z,22.00
2017-12-21T04:03:56.680Z,20.70
2017-12-21T04:05:50.064Z,22.50
2017-12-21T04:06:49.869Z,20.70
2017-12-21T04:08:43.130Z,21.70
2017-12-21T04:09:43.061Z,20.70
2017-12-21T04:11:36.399Z,21.10
2017-12-21T04:12:36.309Z,20.60
2017-12-21T04:14:29.696Z,19.80
2017-12-21T04:15:29.502Z,20.10
2017-12-21T04:17:22.761Z,21.70
2017-12-21T04:18:22.692Z,21.40
2017-12-21T04:20:15.972Z,22.60
2017-12-21T04:21:15.884Z,22.80
2017-12-21T04:23:09.146Z,22.90
2017-12-21T04:24:09.076Z,22.60
2017-12-21T04:26:03.357Z,24.50
2017-12-21T04:27:03.267Z,23.60
2017-12-21T04:28:56.532Z,24.40
2017-12-21T04:29:56.455Z,24.50
2017-12-21T04:31:49.847Z,24.20
2017-12-21T04:32:49.645Z,23.60
2017-12-21T04:34:43.034Z,24.60
2017-12-21T04:35:42.836Z,24.50
2017-12-21T04:37:36.097Z,23.80
2017-12-21T04:38:36.032Z,25.00
2017-12-21T04:40:29.304Z,26.10
2017-12-21T04:41:29.214Z,25.60
2017-12-21T04:43:22.581Z,25.10
2017-12-21T04:44:22.418Z,25.50
2017-12-21T04:46:15.685Z,26.30
2017-12-21T04:47:15.596Z,26.00
2017-12-21T04:49:08.849Z,25.10
2017-12-21T04:50:08.776Z,25.80
2017-12-21T04:52:02.064Z,26.80
2017-12-21T04:53:01.976Z,26.30
2017-12-21T04:54:55.254Z,26.10
2017-12-21T04:55:55.164Z,26.50
2017-12-21T04:57:48.415Z,24.30
2017-12-21T04:58:48.344Z,26.10
2017-12-21T05:00:41.728Z,25.50
2017-12-21T05:01:41.531Z,26.10
2017-12-21T05:03:34.792Z,25.70
2017-12-21T05:04:34.722Z,25.90
2017-12-21T05:06:28.002Z,25.20
2017-12-21T05:07:27.913Z,25.70
2017-12-21T05:09:21.164Z,24.00
2017-12-21T05:10:21.093Z,24.40
2017-12-21T05:12:14.474Z,24.10
2017-12-21T05:13:14.309Z,24.10
2017-12-21T05:15:07.603Z,23.60
2017-12-21T05:16:07.495Z,23.10
2017-12-21T05:18:00.754Z,22.70
2017-12-21T05:19:00.687Z,22.60
2017-12-21T05:20:53.964Z,22.00
2017-12-21T05:21:53.876Z,22.40
2017-12-21T05:23:47.134Z,21.90
2017-12-21T05:24:47.066Z,23.60
2017-12-21T05:26:40.402Z,22.60
2017-12-21T05:27:40.315Z,23.40
2017-12-21T05:29:33.676Z,22.90
2017-12-21T05:30:33.493Z,23.70
2017-12-21T05:32:26.774Z,23.40
2017-12-21T05:33:26.681Z,22.20
2017-12-21T05:35:19.949Z,23.10
2017-12-21T05:36:19.864Z,22.20
2017-12-21T05:38:13.122Z,20.80
2017-12-21T05:39:13.046Z,21.60
2017-12-21T05:41:06.396Z,23.10
2017-12-21T05:42:06.309Z,22.50
2017-12-21T05:43:59.567Z,22.20
2017-12-21T05:44:59.497Z,21.80
2017-12-21T05:46:52.778Z,21.40
2017-12-21T05:47:52.689Z,21.80
2017-12-21T05:49:45.941Z,21.70
2017-12-21T05:50:45.871Z,21.30
2017-12-21T05:52:39.145Z,21.80
2017-12-21T05:53:39.057Z,20.90
2017-12-21T05:55:32.396Z,20.50
2017-12-21T05:56:32.309Z,19.90
2017-12-21T05:58:25.570Z,18.90
2017-12-21T05:59:25.496Z,18.90
2017-12-21T06:01:18.772Z,18.70
2017-12-21T06:02:18.684Z,18.30
2017-12-21T06:04:11.942Z,19.00
2017-12-21T06:05:11.872Z,20.50
2017-12-21T06:07:05.150Z,18.20
2017-12-21T06:08:05.062Z,18.00
2017-12-21T06:09:58.381Z,19.00
2017-12-21T06:10:58.308Z,18.70
2017-12-21T06:12:51.591Z,16.60
2017-12-21T06:13:51.504Z,16.60
2017-12-21T06:15:44.887Z,17.30
2017-12-21T06:16:44.686Z,15.60
2017-12-21T06:18:37.945Z,16.00
2017-12-21T06:19:37.875Z,15.60
2017-12-21T06:21:31.151Z,15.00
2017-12-21T06:22:31.064Z,15.20
2017-12-21T06:24:24.434Z,14.60
2017-12-21T06:25:24.303Z,15.30
2017-12-21T06:27:17.693Z,15.50
2017-12-21T06:28:17.495Z,15.40
2017-12-21T06:30:10.742Z,15.30
2017-12-21T06:31:10.675Z,14.80
2017-12-21T06:33:03.949Z,14.80
2017-12-21T06:34:03.861Z,13.60
2017-12-21T06:35:57.142Z,13.60
2017-12-21T06:36:57.054Z,14.50
2017-12-21T06:38:50.421Z,14.30
2017-12-21T06:39:50.305Z,14.80
2017-12-21T06:41:43.579Z,12.60
2017-12-21T06:42:43.492Z,13.90
2017-12-21T06:44:36.772Z,13.70
2017-12-21T06:45:36.704Z,13.80
2017-12-21T06:47:29.987Z,12.30
2017-12-21T06:48:29.908Z,13.40
2017-12-21T06:50:23.151Z,14.20
2017-12-21T06:51:23.087Z,13.90
2017-12-21T06:53:16.472Z,13.00
2017-12-21T06:54:16.308Z,13.80
2017-12-21T06:56:09.582Z,14.20
2017-12-21T06:57:09.495Z,14.50
2017-12-21T06:59:02.752Z,13.30
2017-12-21T07:00:02.682Z,13.90
2017-12-21T07:01:55.960Z,12.90
2017-12-21T07:02:55.873Z,13.90
2017-12-21T07:04:49.128Z,13.60
2017-12-21T07:05:49.060Z,12.70
2017-12-21T07:07:42.398Z,13.00
2017-12-21T07:08:42.306Z,12.70
2017-12-21T07:10:35.672Z,13.90
2017-12-21T07:11:35.482Z,14.50
2017-12-21T07:13:28.746Z,13.50
2017-12-21T07:14:28.660Z,13.40
2017-12-21T07:16:21.934Z,13.60
2017-12-21T07:17:21.836Z,13.30
2017-12-21T07:19:15.085Z,13.70
2017-12-21T07:20:15.015Z,13.30
2017-12-21T07:22:08.400Z,13.40
2017-12-21T07:23:08.192Z,12.90
2017-12-21T07:25:01.443Z,14.10
2017-12-21T07:26:01.374Z,14.40
2017-12-21T07:27:54.640Z,13.00
2017-12-21T07:28:54.548Z,13.20
2017-12-21T07:30:47.798Z,12.80
2017-12-21T07:31:47.726Z,13.40
2017-12-21T07:33:41.000Z,13.20
2017-12-21T07:34:40.911Z,12.80
2017-12-21T07:36:34.177Z,12.40
2017-12-21T07:37:34.087Z,12.00
2017-12-21T07:39:27.452Z,12.50
2017-12-21T07:40:27.272Z,11.90
2017-12-21T07:42:20.545Z,13.10
2017-12-21T07:43:20.460Z,12.70
2017-12-21T07:45:13.717Z,12.50
2017-12-21T07:46:13.648Z,12.40
2017-12-21T07:48:07.919Z,12.20
2017-12-21T07:49:07.826Z,12.30
2017-12-21T07:51:01.072Z,13.30
2017-12-21T07:52:01.004Z,12.70
2017-12-21T07:53:54.272Z,12.50
2017-12-21T07:54:54.179Z,12.20
2017-12-21T07:56:47.564Z,12.40
2017-12-21T07:57:47.361Z,12.30
2017-12-21T07:59:40.621Z,12.10
2017-12-21T08:00:40.551Z,12.50
2017-12-21T08:02:33.818Z,12.90
2017-12-21T08:03:33.728Z,12.10
2017-12-21T08:05:26.975Z,12.00
2017-12-21T08:06:26.910Z,12.80
2017-12-21T08:08:20.172Z,11.80
2017-12-21T08:09:20.084Z,12.50
2017-12-21T08:11:13.451Z,13.30
2017-12-21T08:12:13.261Z,12.90
2017-12-21T08:14:06.539Z,12.30
2017-12-21T08:15:06.464Z,12.30
2017-12-21T08:16:59.718Z,11.50
2017-12-21T08:17:59.626Z,10.60
2017-12-21T08:19:52.881Z,11.40
2017-12-21T08:20:52.812Z,11.60
2017-12-21T08:22:46.079Z,10.70
2017-12-21T08:23:45.989Z,11.30
2017-12-21T08:25:39.266Z,11.30
2017-12-21T08:26:39.198Z,11.20
2017-12-21T08:28:32.592Z,11.90
2017-12-21T08:29:32.375Z,14.10
2017-12-21T08:31:25.624Z,10.60
2017-12-21T08:32:25.556Z,11.00
2017-12-21T08:34:18.840Z,10.10
2017-12-21T08:35:18.752Z,11.10
2017-12-21T08:37:12.140Z,10.40
2017-12-21T08:38:11.931Z,10.80
2017-12-21T08:40:05.182Z,11.50
2017-12-21T08:41:05.117Z,11.40
2017-12-21T08:42:58.412Z,12.30
2017-12-21T08:43:58.324Z,11.50
2017-12-21T08:45:51.576Z,12.70
2017-12-21T08:46:51.496Z,12.30
2017-12-21T08:48:44.771Z,12.20
2017-12-21T08:49:44.681Z,11.20
2017-12-21T08:51:37.940Z,11.50
2017-12-21T08:52:37.871Z,11.40
2017-12-21T08:54:31.274Z,11.80
2017-12-21T08:55:31.050Z,11.50
2017-12-21T08:57:24.409Z,11.20
2017-12-21T08:58:24.327Z,11.00
2017-12-21T09:00:17.559Z,12.20
2017-12-21T09:01:17.490Z,11.80
2017-12-21T09:03:10.756Z,12.80
2017-12-21T09:04:10.668Z,12.00
2017-12-21T09:06:04.035Z,11.70
2017-12-21T09:07:03.861Z,12.20
2017-12-21T09:08:57.247Z,12.30
2017-12-21T09:09:57.038Z,11.80
2017-12-21T09:11:50.380Z,12.50
2017-12-21T09:12:50.308Z,13.30
2017-12-21T09:14:43.584Z,13.00
2017-12-21T09:15:43.497Z,12.50
2017-12-21T09:17:36.774Z,13.40
2017-12-21T09:18:36.687Z,13.70
2017-12-21T09:20:30.060Z,13.30
2017-12-21T09:21:29.868Z,13.40
2017-12-21T09:23:23.135Z,14.50
2017-12-21T09:24:23.046Z,14.20
2017-12-21T09:26:16.383Z,15.70
2017-12-21T09:27:16.311Z,16.00
2017-12-21T09:29:09.588Z,17.00
2017-12-21T09:30:09.500Z,17.20
2017-12-21T09:32:02.951Z,16.90
2017-12-21T09:33:02.881Z,17.40
2017-12-21T09:34:56.150Z,18.50
2017-12-21T09:35:56.065Z,18.90
2017-12-21T09:37:49.334Z,21.40
2017-12-21T09:38:49.246Z,20.20
2017-12-21T09:40:42.496Z,21.10
2017-12-21T09:41:42.425Z,22.10
2017-12-21T09:43:35.811Z,21.20
2017-12-21T09:44:35.621Z,22.60
2017-12-21T09:46:28.871Z,20.20
2017-12-21T09:47:28.798Z,21.30
2017-12-21T09:49:22.074Z,20.50
2017-12-21T09:50:21.978Z,19.90
2017-12-21T09:52:15.230Z,20.90
2017-12-21T09:53:15.159Z,21.30
2017-12-21T09:55:08.438Z,22.50
2017-12-21T09:56:08.349Z,22.90
2017-12-21T09:58:01.738Z,24.30
2017-12-21T09:59:01.531Z,24.10
2017-12-21T10:00:55.398Z,27.70
2017-12-21T10:01:54.709Z,26.40
2017-12-21T10:03:47.978Z,23.00
2017-12-21T10:04:47.895Z,23.20
2017-12-21T10:06:41.139Z,23.50
2017-12-21T10:07:41.070Z,23.70
2017-12-21T10:09:34.456Z,24.90
2017-12-21T10:10:34.314Z,26.00
2017-12-21T10:12:27.676Z,24.50
2017-12-21T10:13:27.491Z,24.60
2017-12-21T10:15:20.757Z,24.80
2017-12-21T10:16:20.671Z,25.20
2017-12-21T10:18:13.942Z,26.10
2017-12-21T10:19:13.854Z,26.00
2017-12-21T10:21:07.103Z,23.80
2017-12-21T10:22:07.033Z,23.90
2017-12-21T10:24:00.398Z,26.10
2017-12-21T10:25:00.311Z,25.50
2017-12-21T10:26:53.567Z,25.40
2017-12-21T10:27:53.494Z,25.30
2017-12-21T10:29:46.763Z,26.00
2017-12-21T10:30:46.676Z,26.30
2017-12-21T10:32:39.924Z,23.90
2017-12-21T10:33:39.855Z,24.60
2017-12-21T10:35:33.125Z,24.80
2017-12-21T10:36:33.034Z,25.00
2017-12-21T10:38:26.403Z,25.30
2017-12-21T10:39:26.310Z,25.10
2017-12-21T10:41:19.564Z,23.70
2017-12-21T10:42:19.495Z,24.40
2017-12-21T10:44:12.761Z,23.00
2017-12-21T10:45:12.673Z,23.10
2017-12-21T10:47:06.043Z,23.30
2017-12-21T10:48:05.855Z,23.10
2017-12-21T10:49:59.122Z,21.50
2017-12-21T10:50:59.036Z,22.10
2017-12-21T10:52:52.379Z,23.10
2017-12-21T10:53:52.311Z,22.90
2017-12-21T10:55:45.578Z,22.30
2017-12-21T10:56:45.492Z,23.00
2017-12-21T10:58:38.893Z,23.70
2017-12-21T10:59:38.684Z,23.40
2017-12-21T11:01:32.553Z,22.90
2017-12-21T11:02:31.873Z,21.70
2017-12-21T11:04:25.142Z,19.20
2017-12-21T11:05:25.051Z,19.20
2017-12-21T11:07:18.380Z,18.00
2017-12-21T11:08:18.318Z,19.50
2017-12-21T11:10:11.698Z,20.50
2017-12-21T11:11:11.494Z,19.80
2017-12-21T11:13:04.754Z,18.80
2017-12-21T11:14:04.683Z,17.50
2017-12-21T11:15:58.074Z,18.30
2017-12-21T11:16:57.857Z,17.90
2017-12-21T11:18:51.133Z,16.60
2017-12-21T11:19:51.044Z,16.70
2017-12-21T11:21:44.382Z,17.30
2017-12-21T11:22:44.312Z,16.70
2017-12-21T11:24:37.581Z,14.80
2017-12-21T11:25:37.494Z,15.70
2017-12-21T11:27:30.743Z,20.10
2017-12-21T11:28:30.676Z,18.60
2017-12-21T11:30:23.944Z,17.00
2017-12-21T11:31:23.857Z,15.60
2017-12-21T11:33:17.223Z,14.20
2017-12-21T11:34:17.041Z,15.50
2017-12-21T11:36:10.424Z,15.00
2017-12-21T11:37:10.312Z,16.40
2017-12-21T11:39:04.428Z,15.40
2017-12-21T11:40:04.341Z,15.50
2017-12-21T11:41:57.594Z,16.60
2017-12-21T11:42:57.520Z,16.70
2017-12-21T11:44:50.917Z,15.40
2017-12-21T11:45:50.702Z,15.60
2017-12-21T11:47:43.954Z,17.10
2017-12-21T11:48:43.883Z,17.00
2017-12-21T11:50:37.151Z,15.40
2017-12-21T11:51:37.064Z,16.00
2017-12-21T11:53:30.384Z,16.10
2017-12-21T11:54:30.315Z,16.20
2017-12-21T11:56:23.707Z,15.80
2017-12-21T11:57:23.493Z,15.10
2017-12-21T11:59:16.879Z,15.60
2017-12-21T12:00:16.707Z,14.90
2017-12-21T12:02:09.968Z,15.90
2017-12-21T12:03:09.901Z,15.20
2017-12-21T12:05:03.179Z,14.60
2017-12-21T12:06:03.095Z,15.30
2017-12-21T12:07:56.462Z,15.30
2017-12-21T12:08:56.308Z,16.60
2017-12-21T12:10:49.699Z,19.10
2017-12-21T12:11:49.490Z,16.50
2017-12-21T12:13:42.859Z,15.20
2017-12-21T12:14:42.676Z,14.70
2017-12-21T12:16:36.061Z,14.70
2017-12-21T12:17:35.857Z,15.30
2017-12-21T12:19:29.244Z,14.10
2017-12-21T12:20:29.041Z,13.70
2017-12-21T12:22:22.378Z,13.60
2017-12-21T12:23:22.311Z,13.50
2017-12-21T12:25:15.703Z,14.10
2017-12-21T12:26:15.493Z,12.80
2017-12-21T12:28:08.769Z,12.60
2017-12-21T12:29:08.696Z,11.80
2017-12-21T12:31:02.085Z,11.40
2017-12-21T12:32:01.878Z,11.50
2017-12-21T12:33:55.247Z,11.10
2017-12-21T12:34:55.060Z,12.20
2017-12-21T12:36:48.399Z,11.20
2017-12-21T12:37:48.311Z,11.20
2017-12-21T12:39:41.582Z,10.80
2017-12-21T12:40:41.493Z,10.60
2017-12-21T12:42:34.863Z,10.00
2017-12-21T12:43:34.675Z,10.40
2017-12-21T12:45:28.060Z,9.70
2017-12-21T12:46:27.866Z,9.30
2017-12-21T12:48:21.113Z,10.40
2017-12-21T12:49:21.038Z,9.50
2017-12-21T12:51:14.400Z,9.40
2017-12-21T12:52:14.318Z,9.50
2017-12-21T12:54:07.567Z,8.60
2017-12-21T12:55:07.495Z,8.60
2017-12-21T12:57:00.885Z,8.30
2017-12-21T12:58:00.682Z,8.60
2017-12-21T12:59:53.954Z,7.70
2017-12-21T13:00:53.860Z,8.10
2017-12-21T13:02:47.123Z,8.30
2017-12-21T13:03:47.055Z,8.40
2017-12-21T13:05:40.402Z,9.30
2017-12-21T13:06:40.314Z,8.80
2017-12-21T13:08:34.433Z,7.70
2017-12-21T13:09:34.366Z,8.20
2017-12-21T13:11:27.638Z,7.50
2017-12-21T13:12:27.548Z,7.30
2017-12-21T13:14:20.914Z,7.00
2017-12-21T13:15:20.740Z,7.20
2017-12-21T13:17:14.128Z,7.10
2017-12-21T13:18:13.927Z,6.70
2017-12-21T13:20:07.223Z,6.70
2017-12-21T13:21:07.138Z,7.70
2017-12-21T13:23:00.389Z,6.50
2017-12-21T13:24:00.319Z,6.80
2017-12-21T13:25:53.582Z,6.70
2017-12-21T13:26:53.501Z,6.40
2017-12-21T13:28:46.870Z,6.60
2017-12-21T13:29:46.686Z,6.40
2017-12-21T13:31:39.962Z,7.00
2017-12-21T13:32:39.886Z,6.90
2017-12-21T13:34:33.139Z,6.60
2017-12-21T13:35:33.073Z,6.60
2017-12-21T13:37:26.461Z,6.70
2017-12-21T13:38:26.313Z,6.70
2017-12-21T13:40:19.705Z,6.80
2017-12-21T13:41:19.509Z,6.80
2017-12-21T13:43:12.761Z,6.80
2017-12-21T13:44:12.692Z,6.80
2017-12-21T13:46:06.078Z,6.70
2017-12-21T13:47:05.876Z,6.90
2017-12-21T13:48:59.127Z,7.10
2017-12-21T13:49:59.059Z,7.00
2017-12-21T13:51:52.398Z,6.90
2017-12-21T13:52:52.314Z,7.00
2017-12-21T13:54:45.564Z,7.40
2017-12-21T13:55:45.496Z,7.20
2017-12-21T13:57:38.789Z,7.90
2017-12-21T13:58:38.703Z,7.50
2017-12-21T14:00:31.972Z,7.50
2017-12-21T14:01:31.881Z,6.80
2017-12-21T14:03:25.135Z,7.00
2017-12-21T14:04:25.069Z,7.00
2017-12-21T14:06:18.402Z,7.10
2017-12-21T14:07:18.314Z,7.10
2017-12-21T14:09:11.684Z,7.10
2017-12-21T14:10:11.498Z,7.20
2017-12-21T14:12:05.777Z,7.20
2017-12-21T14:13:05.692Z,7.70
2017-12-21T14:14:58.943Z,8.00
2017-12-21T14:15:58.872Z,7.90
2017-12-21T14:17:52.141Z,8.30
2017-12-21T14:18:52.055Z,7.60
2017-12-21T14:20:45.337Z,7.00
2017-12-21T14:21:45.244Z,7.30
2017-12-21T14:23:38.615Z,7.10
2017-12-21T14:24:38.440Z,6.60
2017-12-21T14:26:31.713Z,7.90
2017-12-21T14:27:31.624Z,7.70
2017-12-21T14:29:24.875Z,7.00
2017-12-21T14:30:24.805Z,7.50
2017-12-21T14:32:18.074Z,7.20
2017-12-21T14:33:17.986Z,6.90
2017-12-21T14:35:11.237Z,6.60
2017-12-21T14:36:11.168Z,7.50
2017-12-21T14:38:04.439Z,7.80
2017-12-21T14:39:04.357Z,7.70
2017-12-21T14:40:57.624Z,7.90
2017-12-21T14:41:57.538Z,7.60
2017-12-21T14:43:50.797Z,8.20
2017-12-21T14:44:50.729Z,8.00
2017-12-21T14:46:43.997Z,8.10
2017-12-21T14:47:43.911Z,8.20
2017-12-21T14:49:37.174Z,7.80
2017-12-21T14:50:37.105Z,8.10
2017-12-21T14:52:30.401Z,8.00
2017-12-21T14:53:30.314Z,8.10
2017-12-21T14:55:23.566Z,9.20
2017-12-21T14:56:23.496Z,8.50
2017-12-21T14:58:16.767Z,7.40
2017-12-21T14:59:16.679Z,8.00
2017-12-21T15:01:10.065Z,7.60
2017-12-21T15:02:09.892Z,8.20
2017-12-21T15:04:03.145Z,8.30
2017-12-21T15:05:03.076Z,8.20
2017-12-21T15:06:56.403Z,9.00
2017-12-21T15:07:56.311Z,8.90
2017-12-21T15:09:49.567Z,8.40
2017-12-21T15:10:49.496Z,8.30
2017-12-21T15:12:42.786Z,8.90
2017-12-21T15:13:42.698Z,8.80
2017-12-21T15:15:35.948Z,9.20
2017-12-21T15:16:35.880Z,9.30
2017-12-21T15:18:29.269Z,9.70
2017-12-21T15:19:29.060Z,9.70
2017-12-21T15:21:22.400Z,9.30
2017-12-21T15:22:22.317Z,9.30
2017-12-21T15:24:15.569Z,9.80
2017-12-21T15:25:15.502Z,9.40
2017-12-21T15:27:08.774Z,9.20
2017-12-21T15:28:08.685Z,10.10
2017-12-21T15:30:01.936Z,10.60
2017-12-21T15:31:01.868Z,10.20
2017-12-21T15:32:55.140Z,10.90
2017-12-21T15:33:55.048Z,10.30
2017-12-21T15:35:48.416Z,10.80
2017-12-21T15:36:48.309Z,10.40
2017-12-21T15:38:41.700Z,10.60
2017-12-21T15:39:41.501Z,10.80
2017-12-21T15:41:34.766Z,10.20
2017-12-21T15:42:34.681Z,10.40
2017-12-21T15:44:28.046Z,10.80
2017-12-21T15:45:27.862Z,10.80
2017-12-21T15:47:21.248Z,11.30
2017-12-21T15:48:21.041Z,11.50
2017-12-21T15:50:14.407Z,11.20
2017-12-21T15:51:14.318Z,11.70
2017-12-21T15:53:07.584Z,12.30
2017-12-21T15:54:07.497Z,11.70
2017-12-21T15:56:00.752Z,11.70
2017-12-21T15:57:00.681Z,12.00
2017-12-21T15:58:53.945Z,12.00
2017-12-21T15:59:53.861Z,12.10
2017-12-21T16:01:47.134Z,12.40
2017-12-21T16:02:47.045Z,12.70
2017-12-21T16:04:41.295Z,12.40
2017-12-21T16:05:41.228Z,13.40
2017-12-21T16:07:34.613Z,12.60
2017-12-21T16:08:34.421Z,13.20
2017-12-21T16:10:27.668Z,13.30
2017-12-21T16:11:27.596Z,13.60
2017-12-21T16:13:21.872Z,14.20
2017-12-21T16:14:21.783Z,13.40
2017-12-21T16:16:15.055Z,13.50
2017-12-21T16:17:14.963Z,13.70
2017-12-21T16:19:08.234Z,13.80
2017-12-21T16:20:08.152Z,13.20
2017-12-21T16:22:01.418Z,15.70
2017-12-21T16:23:01.332Z,15.00
2017-12-21T16:24:54.582Z,14.10
2017-12-21T16:25:54.513Z,14.90
2017-12-21T16:27:47.786Z,15.00
2017-12-21T16:28:47.695Z,14.10
2017-12-21T16:30:40.949Z,14.20
2017-12-21T16:31:40.876Z,14.60
2017-12-21T16:33:34.147Z,13.80
2017-12-21T16:34:34.058Z,13.30
2017-12-21T16:36:27.351Z,13.60
2017-12-21T16:37:27.240Z,13.60
2017-12-21T16:39:20.491Z,13.80
2017-12-21T16:40:20.423Z,14.60
2017-12-21T16:42:13.692Z,13.90
2017-12-21T16:43:13.604Z,13.50
2017-12-21T16:45:06.861Z,14.10
2017-12-21T16:46:06.789Z,13.50
2017-12-21T16:48:00.056Z,13.60
2017-12-21T16:48:59.970Z,12.80
2017-12-21T16:50:53.332Z,13.60
2017-12-21T16:51:53.150Z,12.70
2017-12-21T16:53:46.418Z,13.70
2017-12-21T16:54:46.335Z,14.00
2017-12-21T16:56:39.605Z,14.10
2017-12-21T16:57:39.512Z,13.40
2017-12-21T16:59:32.766Z,14.00
2017-12-21T17:00:32.700Z,13.40
2017-12-21T17:02:25.989Z,13.30
2017-12-21T17:03:25.878Z,13.60
2017-12-21T17:05:19.130Z,13.20
2017-12-21T17:06:19.061Z,12.90
2017-12-21T17:08:12.403Z,13.40
2017-12-21T17:09:12.315Z,12.60
2017-12-21T17:11:05.594Z,13.70
2017-12-21T17:12:05.496Z,14.10
2017-12-21T17:13:58.764Z,13.90
2017-12-21T17:14:58.673Z,14.00
2017-12-21T17:16:51.958Z,14.50
2017-12-21T17:17:51.870Z,14.00
2017-12-21T17:19:45.240Z,14.10
2017-12-21T17:20:45.055Z,14.60
2017-12-21T17:22:38.404Z,14.80
2017-12-21T17:23:38.316Z,15.80
2017-12-21T17:25:31.568Z,15.70
2017-12-21T17:26:31.536Z,16.00
2017-12-21T17:28:24.919Z,16.60
2017-12-21T17:29:24.679Z,15.90
2017-12-21T17:31:17.930Z,17.50
2017-12-21T17:32:17.865Z,15.50
2017-12-21T17:34:11.160Z,16.00
2017-12-21T17:35:11.075Z,15.80
2017-12-21T17:37:04.404Z,15.80
2017-12-21T17:38:04.318Z,15.70
2017-12-21T17:39:57.769Z,16.30
2017-12-21T17:40:57.497Z,15.30
2017-12-21T17:42:50.772Z,15.60
2017-12-21T17:43:50.679Z,15.30
2017-12-21T17:45:43.932Z,14.70
2017-12-21T17:46:43.865Z,14.30
2017-12-21T17:48:37.137Z,15.60
2017-12-21T17:49:37.067Z,15.60
2017-12-21T17:51:30.384Z,15.40
2017-12-21T17:52:30.336Z,15.30
2017-12-21T17:54:23.591Z,15.80
2017-12-21T17:55:23.499Z,15.70
2017-12-21T17:57:16.766Z,15.50
2017-12-21T17:58:16.679Z,15.90
2017-12-21T18:00:09.985Z,14.80
2017-12-21T18:01:09.896Z,14.90
2017-12-21T18:03:03.176Z,14.20
2017-12-21T18:04:03.077Z,14.50
2017-12-21T18:05:56.392Z,15.40
2017-12-21T18:06:56.327Z,14.50
2017-12-21T18:08:49.620Z,14.50
2017-12-21T18:09:49.509Z,14.30
2017-12-21T18:11:42.815Z,12.90
2017-12-21T18:12:42.746Z,12.70
2017-12-21T18:14:36.020Z,12.70
2017-12-21T18:15:35.933Z,13.30
2017-12-21T18:17:29.207Z,13.00
2017-12-21T18:18:29.121Z,12.30
2017-12-21T18:20:22.490Z,11.70
2017-12-21T18:21:22.315Z,12.20
2017-12-21T18:23:15.703Z,11.50
2017-12-21T18:24:15.498Z,11.00
2017-12-21T18:26:08.749Z,11.20
2017-12-21T18:27:08.683Z,12.10
2017-12-21T18:29:01.955Z,12.10
2017-12-21T18:30:01.858Z,12.40
2017-12-21T18:31:55.114Z,12.50
2017-12-21T18:32:55.042Z,12.80
2017-12-21T18:34:48.403Z,13.50
2017-12-21T18:35:48.317Z,13.30
2017-12-21T18:37:41.586Z,12.80
2017-12-21T18:38:41.500Z,13.10
2017-12-21T18:40:34.754Z,14.10